createdAt,value
2018-12-25T00:04:42.638Z,60.03
2018-12-25T00:09:46.791Z,61.12
2018-12-25T00:14:50.977Z,60.31
2018-12-25T00:19:55.144Z,60.31
2018-12-25T00:24:59.237Z,59.79
2018-12-25T00:30:03.863Z,59.79
2018-12-25T00:35:08.097Z,60.64
2018-12-25T00:40:12.359Z,59.73
2018-12-25T00:45:18.398Z,60.23
2018-12-25T00:50:22.771Z,60.07
2018-12-25T00:55:27.040Z,60.07
2018-12-25T01:00:31.300Z,60.18
2018-12-25T01:05:35.401Z,60.08
2018-12-25T01:10:39.545Z,61.06
2018-12-25T01:15:43.634Z,60.27
2018-12-25T01:20:47.730Z,60.38
2018-12-25T01:25:51.985Z,60.08
2018-12-25T01:30:56.150Z,60.08
2018-12-25T01:36:00.296Z,60.68
2018-12-25T01:41:04.427Z,60.77
2018-12-25T01:46:08.438Z,60.61
2018-12-25T01:51:12.789Z,60.61
2018-12-25T01:56:17.073Z,60.73
2018-12-25T02:01:21.466Z,60.55
2018-12-25T02:06:25.674Z,61.29
2018-12-25T02:11:29.975Z,60.34
2018-12-25T02:16:34.243Z,60.34
2018-12-25T02:21:38.472Z,61.07
2018-12-25T02:26:42.631Z,61.00
2018-12-25T02:31:46.858Z,60.99
2018-12-25T02:36:51.243Z,60.75
2018-12-25T02:41:55.625Z,60.75
2018-12-25T02:46:59.831Z,60.51
2018-12-25T02:52:04.137Z,60.47
2018-12-25T02:57:08.516Z,60.47
2018-12-25T03:02:12.800Z,60.62
2018-12-25T03:07:16.953Z,61.15
2018-12-25T03:12:21.297Z,60.59
2018-12-25T03:17:25.554Z,60.59
2018-12-25T03:22:29.905Z,60.51
2018-12-25T03:27:34.025Z,61.04
2018-12-25T03:32:38.231Z,60.91
2018-12-25T03:37:42.555Z,60.92
2018-12-25T03:42:46.893Z,60.57
2018-12-25T03:47:51.224Z,61.06
2018-12-25T03:52:55.552Z,60.44
2018-12-25T03:57:59.825Z,60.37
2018-12-25T04:03:04.108Z,60.50
2018-12-25T04:08:08.397Z,60.68
2018-12-25T04:13:12.678Z,60.68
2018-12-25T04:18:16.971Z,60.77
2018-12-25T04:23:21.139Z,61.26
2018-12-25T04:28:25.633Z,60.73
2018-12-25T04:33:29.889Z,60.73
2018-12-25T04:38:34.161Z,60.82
2018-12-25T04:43:38.423Z,60.80
2018-12-25T04:48:42.792Z,60.66
2018-12-25T04:53:46.932Z,60.58
2018-12-25T04:58:51.180Z,60.58
2018-12-25T05:03:55.463Z,60.58
2018-12-25T05:08:59.653Z,60.46
2018-12-25T05:14:04.075Z,60.46
2018-12-25T05:19:08.494Z,60.75
2018-12-25T05:24:12.918Z,60.63
2018-12-25T05:29:17.096Z,60.83
2018-12-25T05:34:21.344Z,61.02
2018-12-25T05:39:25.613Z,61.02
2018-12-25T05:44:29.796Z,60.97
2018-12-25T05:49:34.228Z,60.97
2018-12-25T05:54:38.474Z,60.96
2018-12-25T05:59:42.704Z,60.43
2018-12-25T06:04:47.076Z,60.43
2018-12-25T06:09:51.371Z,60.95
2018-12-25T06:14:55.667Z,60.55
2018-12-25T06:19:59.923Z,60.53
2018-12-25T06:25:04.307Z,60.85
2018-12-25T06:30:08.780Z,61.02
2018-12-25T06:35:13.094Z,61.23
2018-12-25T06:40:17.518Z,61.25
2018-12-25T06:45:21.695Z,61.15
2018-12-25T06:50:26.055Z,60.90
2018-12-25T06:55:30.334Z,61.42
2018-12-25T07:00:34.559Z,61.51
2018-12-25T07:05:38.918Z,61.46
2018-12-25T07:10:43.339Z,60.92
2018-12-25T07:15:47.726Z,61.52
2018-12-25T07:20:51.961Z,61.63
2018-12-25T07:25:56.251Z,61.47
2018-12-25T07:31:00.586Z,60.99
2018-12-25T07:36:04.971Z,60.95
2018-12-25T07:41:09.357Z,60.95
2018-12-25T07:46:13.709Z,61.38
2018-12-25T07:51:20.846Z,61.43
2018-12-25T08:02:03.117Z,60.58
2018-12-25T08:07:07.138Z,49.13
2018-12-25T08:12:11.175Z,59.77
2018-12-25T08:17:15.430Z,50.62
2018-12-25T08:22:19.543Z,50.62
2018-12-25T08:27:23.590Z,50.98
2018-12-25T08:32:28.439Z,51.50
2018-12-25T08:37:32.750Z,51.10
2018-12-25T08:42:39.477Z,52.49
2018-12-25T08:47:44.837Z,52.49
2018-12-25T08:52:48.935Z,53.00
2018-12-25T08:57:54.916Z,54.04
2018-12-25T09:02:59.313Z,53.96
2018-12-25T09:08:03.504Z,54.79
2018-12-25T09:13:07.505Z,54.76
2018-12-25T09:18:11.633Z,55.06
2018-12-25T09:23:15.773Z,55.36
2018-12-25T09:28:19.818Z,55.98
2018-12-25T09:33:23.886Z,55.98
2018-12-25T09:38:27.967Z,56.60
2018-12-25T09:43:32.081Z,56.52
2018-12-25T09:48:36.184Z,57.11
2018-12-25T09:53:40.326Z,57.64
2018-12-25T09:58:44.489Z,57.80
2018-12-25T10:03:48.796Z,58.06
2018-12-25T10:08:52.838Z,58.16
2018-12-25T10:13:56.916Z,58.65
2018-12-25T10:19:01.132Z,58.47
2018-12-25T10:24:06.731Z,59.01
2018-12-25T10:29:10.825Z,58.94
2018-12-25T10:34:15.048Z,59.12
2018-12-25T10:39:19.298Z,59.76
2018-12-25T10:44:23.383Z,59.76
2018-12-25T10:49:27.550Z,60.00
2018-12-25T10:54:31.709Z,59.77
2018-12-25T10:59:35.841Z,59.94
2018-12-25T11:04:40.122Z,59.94
2018-12-25T11:09:44.172Z,60.38
2018-12-25T11:14:48.302Z,60.11
2018-12-25T11:19:52.428Z,60.58
2018-12-25T11:24:56.619Z,60.48
2018-12-25T11:30:00.756Z,60.65
2018-12-25T11:35:05.883Z,60.41
2018-12-25T11:40:10.280Z,60.62
2018-12-25T11:45:14.635Z,60.79
2018-12-25T11:50:21.636Z,61.21
2018-12-25T11:56:08.213Z,61.94
2018-12-25T12:01:24.895Z,62.61
2018-12-25T12:06:32.786Z,63.23
2018-12-25T12:11:37.212Z,64.53
2018-12-25T12:16:41.271Z,63.83
2018-12-25T12:21:45.338Z,62.84
2018-12-25T12:26:49.515Z,63.80
2018-12-25T12:31:55.727Z,63.52
2018-12-25T12:36:59.847Z,51.59
2018-12-25T12:42:04.116Z,51.59
2018-12-25T12:47:08.397Z,51.31
2018-12-25T12:52:12.572Z,51.31
2018-12-25T12:57:16.691Z,54.21
2018-12-25T13:02:20.905Z,50.63
2018-12-25T13:07:24.964Z,50.33
2018-12-25T13:12:29.021Z,50.33
2018-12-25T13:17:33.079Z,52.09
2018-12-25T13:22:37.167Z,52.57
2018-12-25T13:27:41.303Z,53.06
2018-12-25T13:32:45.815Z,53.41
2018-12-25T13:37:49.972Z,54.24
2018-12-25T13:42:54.050Z,54.24
2018-12-25T13:47:58.348Z,54.57
2018-12-25T13:53:03.381Z,54.75
2018-12-25T13:58:07.899Z,55.38
2018-12-25T14:35:35.718Z,56.51
2018-12-25T14:40:39.770Z,56.30
2018-12-25T14:45:43.817Z,56.30
2018-12-25T14:50:47.833Z,56.71
2018-12-25T14:55:51.942Z,57.57
2018-12-25T15:00:56.023Z,57.85
2018-12-25T15:06:00.147Z,57.85
2018-12-25T15:38:39.348Z,59.95
2018-12-25T15:43:43.441Z,59.97
2018-12-25T15:48:47.526Z,59.97
2018-12-25T15:53:51.644Z,59.53
2018-12-25T15:58:55.787Z,59.30
2018-12-25T16:03:59.798Z,59.35
2018-12-25T16:09:05.446Z,59.12
2018-12-25T16:14:09.486Z,59.36
2018-12-25T16:19:13.546Z,59.01
2018-12-25T16:24:17.584Z,59.34
2018-12-25T16:29:21.640Z,59.29
2018-12-25T16:34:25.696Z,59.55
2018-12-25T16:39:29.853Z,59.67
2018-12-25T16:44:33.911Z,59.83
2018-12-25T16:49:37.968Z,60.26
2018-12-25T16:54:42.032Z,60.26
2018-12-25T16:59:46.176Z,59.83
2018-12-25T17:04:50.223Z,60.24
2018-12-25T17:09:55.314Z,60.55
2018-12-25T17:14:59.356Z,60.69
2018-12-25T17:20:03.570Z,60.37
2018-12-25T17:25:07.675Z,60.53
2018-12-25T17:30:11.718Z,60.53
2018-12-25T17:35:17.847Z,60.57
2018-12-25T17:40:21.896Z,60.55
2018-12-25T17:45:25.955Z,60.81
2018-12-25T17:50:30.028Z,60.64
2018-12-25T17:55:34.105Z,60.71
2018-12-25T18:00:40.511Z,60.71
2018-12-25T18:05:44.548Z,60.95
2018-12-25T18:10:48.590Z,60.45
2018-12-25T18:15:54.967Z,60.84
2018-12-25T18:20:58.989Z,60.55
2018-12-25T18:26:03.004Z,60.65
2018-12-25T18:31:07.048Z,60.53
2018-12-25T18:36:11.082Z,60.49
2018-12-25T18:41:15.136Z,60.68
2018-12-25T18:46:19.444Z,60.20
2018-12-25T18:51:23.465Z,60.55
2018-12-25T18:56:27.507Z,60.55
2018-12-25T19:01:31.602Z,60.31
2018-12-25T19:06:35.627Z,60.30
2018-12-25T19:11:40.209Z,60.32
2018-12-25T19:16:45.037Z,60.63
2018-12-25T19:21:49.129Z,60.21
2018-12-25T19:26:53.151Z,60.43
2018-12-25T19:31:57.204Z,60.43
2018-12-25T19:37:01.303Z,60.58
2018-12-25T19:42:05.320Z,60.38
2018-12-25T19:47:09.489Z,60.12
2018-12-25T19:52:13.668Z,60.12
2018-12-25T19:57:18.030Z,59.90
2018-12-25T20:02:23.334Z,59.90
2018-12-25T20:08:06.744Z,60.27
2018-12-25T20:14:15.992Z,60.27
2018-12-25T20:20:14.402Z,59.97
2018-12-25T20:26:07.456Z,59.93
2018-12-25T20:31:48.509Z,60.31
2018-12-25T20:37:23.145Z,60.18
2018-12-25T20:43:07.207Z,59.73
2018-12-25T20:49:01.272Z,59.81
2018-12-25T20:55:05.899Z,60.09
2018-12-25T21:00:48.366Z,60.04
2018-12-25T21:06:48.791Z,60.04
2018-12-25T21:12:43.129Z,60.14
2018-12-25T21:18:40.679Z,60.13
2018-12-25T21:24:20.694Z,59.96
2018-12-25T21:29:24.920Z,60.28
2018-12-25T21:34:29.085Z,60.10
2018-12-25T21:39:33.258Z,59.87
2018-12-25T21:44:37.457Z,58.69
2018-12-25T21:49:46.589Z,59.40
2018-12-25T21:54:50.776Z,59.74
2018-12-25T21:59:55.546Z,59.28
2018-12-25T22:04:59.767Z,60.05
2018-12-25T22:10:04.012Z,59.37
2018-12-25T22:15:09.500Z,59.40
2018-12-25T22:20:22.023Z,59.40
2018-12-25T22:25:27.179Z,59.34
2018-12-25T22:30:31.634Z,58.98
2018-12-25T22:35:35.651Z,58.75
2018-12-25T22:40:39.714Z,58.75
2018-12-25T22:45:43.815Z,58.82
2018-12-25T22:50:47.876Z,59.43
2018-12-25T22:55:51.954Z,59.14
2018-12-25T23:00:56.132Z,59.30
2018-12-25T23:06:00.172Z,59.57
2018-12-25T23:11:04.265Z,59.24
2018-12-25T23:16:08.474Z,58.05
2018-12-25T23:21:12.567Z,58.87
2018-12-25T23:26:16.595Z,58.87
2018-12-25T23:31:20.735Z,59.31
2018-12-25T23:36:24.904Z,59.25
2018-12-25T23:41:29.029Z,59.30
2018-12-25T23:46:33.229Z,60.18
2018-12-25T23:51:37.557Z,58.51
2018-12-25T23:56:41.956Z,58.44
